Bookmark and Share
Track history (hours):
 

Carnival Liberty

Last reported at 2014-Apr-21 06:00 UTC. Time now 2014-Apr-23 13:33 UTC.
Position N 21°00' W 086°18'.

Type: Ship. MMSI: 371083000.

Wind from 020 at 9 knots

Waves 0.5 meters (2 feet), 2 second period

Barometer 1012.0 mb
Air temperature 24.0 ° C
Dewpoint 16.3 ° C
Water temperature 28.2 ° C

NotesDate/timePositionNaut miles runAvg speedWind from/ knotsBaromVisibWave heightAir tempDewpointWater temp
2014-Apr-21 06:00N 21°00' W 086°18'43614.6 020 / 91012.0 0.524.016.328.2
2014-Apr-20 00:10N 25°21' W 079°58'915.0
2014-Apr-19 23:33N 25°30' W 079°58'1414.2
2014-Apr-19 22:33N 25°44' W 080°02'9 8.6
2014-Apr-19 21:34N 25°47' W 080°11'1 0.7
2014-Apr-19 20:32N 25°47' W 080°10'0 0.0
2014-Apr-19 19:32N 25°47' W 080°10'0 0.0
2014-Apr-19 18:32N 25°47' W 080°10'0 0.0
2014-Apr-19 17:31N 25°47' W 080°10'0 0.0
2014-Apr-19 16:31N 25°47' W 080°10'0 0.0
2014-Apr-19 15:33N 25°47' W 080°10'0 0.0
2014-Apr-19 14:33N 25°47' W 080°10'0 0.0
2014-Apr-19 13:32N 25°47' W 080°10'0 0.0
2014-Apr-19 12:32N 25°47' W 080°10'0 0.0
2014-Apr-19 11:32N 25°47' W 080°10'0 0.0
2014-Apr-19 10:33N 25°47' W 080°10'6 6.4
2014-Apr-19 09:33N 25°47' W 080°03'9 9.0
2014-Apr-19 08:33N 25°51' W 079°54'8 7.8
2014-Apr-19 07:33N 25°55' W 079°47'1313.2
2014-Apr-19 06:33N 26°03' W 079°35'1615.8
2014-Apr-19 05:31N 26°14' W 079°22'1817.9
2014-Apr-19 04:32N 26°19' W 079°03'65914.2
2014-Apr-17 06:00N 20°30' W 068°54'   070 / 241012.010.8 1.025.020.727.1
2014-Apr-13 01:29N 26°12' W 079°13'1516.8
2014-Apr-13 00:33N 26°05' W 079°28'1717.5
2014-Apr-12 23:34N 25°56' W 079°45'1817.5
2014-Apr-12 22:33N 25°47' W 080°02'8 7.7
2014-Apr-12 21:33N 25°47' W 080°10'0 0.3
2014-Apr-12 20:31N 25°47' W 080°10'0 0.0
2014-Apr-12 19:31N 25°47' W 080°10'0 0.0
2014-Apr-12 18:33N 25°47' W 080°10'0 0.0
2014-Apr-12 17:33N 25°47' W 080°10'0 0.0
2014-Apr-12 16:29N 25°47' W 080°10'0 0.0
2014-Apr-12 15:32N 25°47' W 080°10'0 0.0
2014-Apr-12 14:32N 25°47' W 080°10'0 0.0
2014-Apr-12 13:31N 25°47' W 080°10'0 0.0
2014-Apr-12 12:31N 25°47' W 080°10'0 0.0
2014-Apr-12 11:33N 25°47' W 080°10'0 0.0
2014-Apr-12 10:33N 25°47' W 080°10'4 3.8
2014-Apr-12 09:33N 25°46' W 080°06'9 8.5
2014-Apr-12 08:33N 25°41' W 079°58'1717.3
2014-Apr-12 07:33N 25°25' W 079°53'24212.4
2014-Apr-11 12:00N 23°06' W 083°30'10217.1 100 / 251015.010.8 2.023.011.328.0
2014-Apr-11 06:00N 22°06' W 085°00'   060 / 131014.0 5.4 0.524.016.327.7

Dump ship's entire track history

sailing weather and tide predictions

Carnival Liberty — HPYE — position and weather